DAL3054 KATL-KSAV
Flight info
| Callsign | DAL3054 |
|---|---|
| Flight time | 0h 39m |
| Altitude | 23000 |
| Route | VRSTY3 NOKIE DBN LOTTS SAV |
| Aircraft | B739/M-SDE2E3FGHIRWXY/LB1 |
Departure
| Time | 2026-05-01 14:11 |
|---|---|
| Airport | Hartsfield Jackson Atlanta International Airport (KATL) |
Arrival
| Time | 2026-05-01 14:51 |
|---|---|
| Airport | Savannah Hilton Head International Airport (KSAV) |
| Time | Latitude | Longitude | Altitude | Speed | Heading |
|---|---|---|---|---|---|
| 2026-05-01 13:57 | 33.64120 | -84.42885 | 1025 ft | 0 kts | 279° |
| 2026-05-01 14:03 | 33.64118 | -84.42873 | 1025 ft | 2 kts | 279° |
| 2026-05-01 14:03 | 33.64116 | -84.42857 | 1025 ft | 0 kts | 279° |
| 2026-05-01 14:04 | 33.64114 | -84.42844 | 1025 ft | 2 kts | 267° |
| 2026-05-01 14:04 | 33.64117 | -84.42826 | 1025 ft | 2 kts | 250° |
| 2026-05-01 14:04 | 33.64124 | -84.42810 | 1025 ft | 2 kts | 234° |
| 2026-05-01 14:04 | 33.64129 | -84.42802 | 1025 ft | 1 kts | 224° |
| 2026-05-01 14:05 | 33.64131 | -84.42799 | 1025 ft | 0 kts | 225° |
| 2026-05-01 14:06 | 33.64124 | -84.42806 | 1025 ft | 2 kts | 212° |
| 2026-05-01 14:06 | 33.64099 | -84.42812 | 1025 ft | 4 kts | 175° |
| 2026-05-01 14:07 | 33.64059 | -84.42807 | 1025 ft | 7 kts | 177° |
| 2026-05-01 14:07 | 33.63989 | -84.42806 | 1025 ft | 12 kts | 180° |
| 2026-05-01 14:07 | 33.63891 | -84.42807 | 1025 ft | 14 kts | 180° |
| 2026-05-01 14:08 | 33.63685 | -84.42790 | 1025 ft | 14 kts | 151° |
| 2026-05-01 14:08 | 33.63600 | -84.42781 | 1022 ft | 13 kts | 219° |
| 2026-05-01 14:08 | 33.63580 | -84.42912 | 1020 ft | 18 kts | 269° |
| 2026-05-01 14:08 | 33.63579 | -84.43079 | 1020 ft | 21 kts | 270° |
| 2026-05-01 14:09 | 33.63580 | -84.43278 | 1020 ft | 26 kts | 271° |
| 2026-05-01 14:09 | 33.63579 | -84.43517 | 1020 ft | 30 kts | 270° |
| 2026-05-01 14:09 | 33.63580 | -84.43764 | 1022 ft | 28 kts | 269° |
| 2026-05-01 14:09 | 33.63580 | -84.43988 | 1022 ft | 25 kts | 269° |
| 2026-05-01 14:10 | 33.63580 | -84.44187 | 1022 ft | 22 kts | 268° |
| 2026-05-01 14:10 | 33.63580 | -84.44360 | 1023 ft | 19 kts | 272° |
| 2026-05-01 14:10 | 33.63541 | -84.44482 | 1022 ft | 15 kts | 192° |
| 2026-05-01 14:10 | 33.63473 | -84.44411 | 1023 ft | 18 kts | 94° |
| 2026-05-01 14:11 | 33.63471 | -84.44014 | 1022 ft | 80 kts | 89° |
| 2026-05-01 14:11 | 33.63467 | -84.41738 | 1040 ft | 182 kts | 89° |
| 2026-05-01 14:11 | 33.63480 | -84.40268 | 1670 ft | 181 kts | 87° |
| 2026-05-01 14:12 | 33.63480 | -84.38703 | 2141 ft | 195 kts | 96° |
| 2026-05-01 14:12 | 33.63106 | -84.37098 | 2645 ft | 208 kts | 109° |
| 2026-05-01 14:12 | 33.62542 | -84.35436 | 3080 ft | 220 kts | 109° |
| 2026-05-01 14:12 | 33.61988 | -84.33684 | 3483 ft | 233 kts | 107° |
| 2026-05-01 14:13 | 33.61446 | -84.31826 | 3929 ft | 246 kts | 107° |
| 2026-05-01 14:13 | 33.60719 | -84.29929 | 4348 ft | 262 kts | 123° |
| 2026-05-01 14:13 | 33.59343 | -84.28427 | 4875 ft | 273 kts | 152° |
| 2026-05-01 14:13 | 33.57523 | -84.27738 | 5513 ft | 277 kts | 174° |
| 2026-05-01 14:14 | 33.55586 | -84.27612 | 6197 ft | 279 kts | 182° |
| 2026-05-01 14:14 | 33.53659 | -84.27619 | 6880 ft | 281 kts | 183° |
| 2026-05-01 14:14 | 33.51699 | -84.27640 | 7577 ft | 282 kts | 184° |
| 2026-05-01 14:14 | 33.49738 | -84.27653 | 8205 ft | 286 kts | 184° |
| 2026-05-01 14:15 | 33.47731 | -84.27660 | 8851 ft | 289 kts | 184° |
| 2026-05-01 14:15 | 33.45723 | -84.27618 | 9482 ft | 293 kts | 180° |
| 2026-05-01 14:15 | 33.43671 | -84.27299 | 10111 ft | 298 kts | 175° |
| 2026-05-01 14:15 | 33.41597 | -84.26820 | 10488 ft | 311 kts | 173° |
| 2026-05-01 14:16 | 33.39460 | -84.26260 | 10811 ft | 326 kts | 169° |
| 2026-05-01 14:16 | 33.37288 | -84.25203 | 11087 ft | 348 kts | 154° |
| 2026-05-01 14:16 | 33.35248 | -84.23509 | 11354 ft | 366 kts | 146° |
| 2026-05-01 14:16 | 33.33219 | -84.21537 | 11619 ft | 382 kts | 144° |
| 2026-05-01 14:17 | 33.31191 | -84.19481 | 12191 ft | 386 kts | 144° |
| 2026-05-01 14:17 | 33.29135 | -84.17409 | 12789 ft | 389 kts | 145° |
| 2026-05-01 14:17 | 33.27037 | -84.15334 | 13420 ft | 391 kts | 146° |
| 2026-05-01 14:17 | 33.24941 | -84.13294 | 13943 ft | 396 kts | 147° |
| 2026-05-01 14:18 | 33.22756 | -84.11192 | 14433 ft | 403 kts | 147° |
| 2026-05-01 14:18 | 33.20572 | -84.09105 | 14936 ft | 409 kts | 147° |
| 2026-05-01 14:18 | 33.18329 | -84.06967 | 15442 ft | 415 kts | 148° |
| 2026-05-01 14:18 | 33.16807 | -84.05518 | 15769 ft | 419 kts | 148° |
| 2026-05-01 14:19 | 33.13766 | -84.02621 | 16499 ft | 423 kts | 148° |
| 2026-05-01 14:19 | 33.11450 | -84.00417 | 16863 ft | 432 kts | 148° |
| 2026-05-01 14:19 | 33.09082 | -83.98162 | 17378 ft | 436 kts | 149° |
| 2026-05-01 14:19 | 33.06716 | -83.95956 | 17893 ft | 437 kts | 151° |
| 2026-05-01 14:20 | 33.04236 | -83.93800 | 18284 ft | 442 kts | 153° |
| 2026-05-01 14:20 | 32.99192 | -83.89644 | 19374 ft | 445 kts | 154° |
| 2026-05-01 14:20 | 32.96604 | -83.87529 | 19859 ft | 448 kts | 153° |
| 2026-05-01 14:21 | 32.94079 | -83.85452 | 20619 ft | 443 kts | 154° |
| 2026-05-01 14:21 | 32.91537 | -83.83350 | 21289 ft | 441 kts | 154° |
| 2026-05-01 14:21 | 32.89053 | -83.81288 | 21962 ft | 437 kts | 153° |
| 2026-05-01 14:22 | 32.84082 | -83.77163 | 22897 ft | 439 kts | 153° |
| 2026-05-01 14:22 | 32.81552 | -83.75065 | 22960 ft | 441 kts | 153° |
| 2026-05-01 14:22 | 32.79070 | -83.73004 | 22963 ft | 437 kts | 153° |
| 2026-05-01 14:22 | 32.76565 | -83.70922 | 22967 ft | 437 kts | 153° |
| 2026-05-01 14:23 | 32.74130 | -83.68771 | 22964 ft | 440 kts | 148° |
| 2026-05-01 14:23 | 32.71898 | -83.66233 | 22966 ft | 454 kts | 137° |
| 2026-05-01 14:23 | 32.70055 | -83.63170 | 22967 ft | 462 kts | 125° |
| 2026-05-01 14:23 | 32.68707 | -83.59700 | 22963 ft | 468 kts | 114° |
| 2026-05-01 14:24 | 32.67759 | -83.55969 | 22959 ft | 471 kts | 107° |
| 2026-05-01 14:24 | 32.67043 | -83.52225 | 22967 ft | 472 kts | 104° |
| 2026-05-01 14:24 | 32.66421 | -83.48381 | 22961 ft | 472 kts | 102° |
| 2026-05-01 14:24 | 32.65858 | -83.44577 | 22961 ft | 472 kts | 102° |
| 2026-05-01 14:25 | 32.65301 | -83.40706 | 22957 ft | 474 kts | 102° |
| 2026-05-01 14:25 | 32.64747 | -83.36877 | 22962 ft | 474 kts | 102° |
| 2026-05-01 14:25 | 32.64180 | -83.33023 | 22958 ft | 474 kts | 102° |
| 2026-05-01 14:25 | 32.63614 | -83.29236 | 22955 ft | 473 kts | 102° |
| 2026-05-01 14:26 | 32.63025 | -83.25362 | 22957 ft | 473 kts | 103° |
| 2026-05-01 14:26 | 32.61847 | -83.17745 | 22962 ft | 473 kts | 103° |
| 2026-05-01 14:26 | 32.61249 | -83.13917 | 22966 ft | 474 kts | 103° |
| 2026-05-01 14:27 | 32.60644 | -83.10049 | 22964 ft | 474 kts | 103° |
| 2026-05-01 14:27 | 32.60040 | -83.06215 | 22961 ft | 474 kts | 103° |
| 2026-05-01 14:27 | 32.59432 | -83.02371 | 22960 ft | 475 kts | 102° |
| 2026-05-01 14:28 | 32.58214 | -82.94717 | 22962 ft | 474 kts | 103° |
| 2026-05-01 14:28 | 32.57605 | -82.90878 | 22963 ft | 473 kts | 102° |
| 2026-05-01 14:28 | 32.56992 | -82.87036 | 22962 ft | 476 kts | 103° |
| 2026-05-01 14:28 | 32.56383 | -82.83224 | 22959 ft | 474 kts | 103° |
| 2026-05-01 14:29 | 32.55701 | -82.79388 | 22961 ft | 475 kts | 105° |
| 2026-05-01 14:29 | 32.54898 | -82.75610 | 22957 ft | 472 kts | 108° |
| 2026-05-01 14:30 | 32.52231 | -82.64452 | 22961 ft | 472 kts | 109° |
| 2026-05-01 14:30 | 32.51324 | -82.60706 | 22957 ft | 471 kts | 109° |
| 2026-05-01 14:30 | 32.50431 | -82.56981 | 22961 ft | 473 kts | 109° |
| 2026-05-01 14:31 | 32.48677 | -82.49560 | 22502 ft | 467 kts | 108° |
| 2026-05-01 14:31 | 32.47806 | -82.45847 | 21953 ft | 467 kts | 108° |
| 2026-05-01 14:31 | 32.46840 | -82.42223 | 21297 ft | 464 kts | 113° |
| 2026-05-01 14:31 | 32.45703 | -82.38734 | 21037 ft | 448 kts | 116° |
| 2026-05-01 14:32 | 32.44513 | -82.35390 | 20788 ft | 434 kts | 117° |
| 2026-05-01 14:32 | 32.43338 | -82.32188 | 20648 ft | 420 kts | 118° |
| 2026-05-01 14:32 | 32.42176 | -82.29024 | 20339 ft | 414 kts | 118° |
| 2026-05-01 14:32 | 32.41042 | -82.25904 | 19864 ft | 414 kts | 117° |
| 2026-05-01 14:33 | 32.39925 | -82.22784 | 19470 ft | 411 kts | 117° |
| 2026-05-01 14:33 | 32.38821 | -82.19660 | 19078 ft | 408 kts | 116° |
| 2026-05-01 14:33 | 32.37745 | -82.16588 | 18679 ft | 406 kts | 115° |
| 2026-05-01 14:33 | 32.36677 | -82.13515 | 18274 ft | 404 kts | 115° |
| 2026-05-01 14:34 | 32.35624 | -82.10475 | 17772 ft | 401 kts | 115° |
| 2026-05-01 14:34 | 32.34573 | -82.07426 | 17294 ft | 397 kts | 115° |
| 2026-05-01 14:34 | 32.33548 | -82.04449 | 16834 ft | 393 kts | 115° |
| 2026-05-01 14:34 | 32.32525 | -82.01484 | 16383 ft | 387 kts | 115° |
| 2026-05-01 14:35 | 32.31518 | -81.98563 | 15907 ft | 384 kts | 115° |
| 2026-05-01 14:35 | 32.30516 | -81.95650 | 15411 ft | 381 kts | 115° |
| 2026-05-01 14:35 | 32.29531 | -81.92782 | 14979 ft | 375 kts | 115° |
| 2026-05-01 14:35 | 32.28561 | -81.89962 | 14741 ft | 363 kts | 115° |
| 2026-05-01 14:36 | 32.27636 | -81.87275 | 14550 ft | 351 kts | 115° |
| 2026-05-01 14:36 | 32.26715 | -81.84611 | 14244 ft | 347 kts | 115° |
| 2026-05-01 14:36 | 32.25808 | -81.81992 | 13931 ft | 344 kts | 115° |
| 2026-05-01 14:36 | 32.24909 | -81.79400 | 13569 ft | 343 kts | 115° |
| 2026-05-01 14:37 | 32.24008 | -81.76806 | 13316 ft | 339 kts | 115° |
| 2026-05-01 14:37 | 32.23123 | -81.74255 | 13011 ft | 335 kts | 114° |
| 2026-05-01 14:37 | 32.22238 | -81.71706 | 12698 ft | 332 kts | 114° |
| 2026-05-01 14:37 | 32.21366 | -81.69196 | 12491 ft | 325 kts | 114° |
| 2026-05-01 14:38 | 32.20536 | -81.66799 | 12422 ft | 312 kts | 114° |
| 2026-05-01 14:38 | 32.19732 | -81.64479 | 12346 ft | 299 kts | 114° |
| 2026-05-01 14:38 | 32.18967 | -81.62272 | 12290 ft | 286 kts | 115° |
| 2026-05-01 14:38 | 32.18238 | -81.60175 | 12176 ft | 273 kts | 115° |
| 2026-05-01 14:39 | 32.17529 | -81.58142 | 11788 ft | 273 kts | 115° |
| 2026-05-01 14:39 | 32.16790 | -81.56044 | 11241 ft | 279 kts | 115° |
| 2026-05-01 14:39 | 32.16047 | -81.53921 | 10857 ft | 277 kts | 114° |
| 2026-05-01 14:39 | 32.15321 | -81.51841 | 10541 ft | 273 kts | 114° |
| 2026-05-01 14:40 | 32.14612 | -81.49809 | 10183 ft | 269 kts | 115° |
| 2026-05-01 14:40 | 32.13903 | -81.47781 | 9857 ft | 265 kts | 114° |
| 2026-05-01 14:40 | 32.13245 | -81.45755 | 9491 ft | 263 kts | 108° |
| 2026-05-01 14:40 | 32.12993 | -81.43653 | 9083 ft | 263 kts | 83° |
| 2026-05-01 14:41 | 32.13633 | -81.41700 | 8710 ft | 256 kts | 49° |
| 2026-05-01 14:41 | 32.14951 | -81.40375 | 8351 ft | 247 kts | 25° |
| 2026-05-01 14:41 | 32.16539 | -81.39619 | 7958 ft | 241 kts | 8° |
| 2026-05-01 14:41 | 32.18162 | -81.39629 | 7566 ft | 232 kts | 340° |
| 2026-05-01 14:42 | 32.19555 | -81.40492 | 7191 ft | 226 kts | 319° |
| 2026-05-01 14:42 | 32.20638 | -81.41770 | 6818 ft | 221 kts | 305° |
| 2026-05-01 14:42 | 32.21265 | -81.43425 | 6324 ft | 222 kts | 279° |
| 2026-05-01 14:42 | 32.21263 | -81.45241 | 5920 ft | 222 kts | 266° |
| 2026-05-01 14:43 | 32.21202 | -81.47027 | 5500 ft | 222 kts | 270° |
| 2026-05-01 14:43 | 32.21221 | -81.48860 | 5062 ft | 223 kts | 271° |
| 2026-05-01 14:43 | 32.21244 | -81.50699 | 4627 ft | 224 kts | 271° |
| 2026-05-01 14:43 | 32.21248 | -81.52528 | 4188 ft | 225 kts | 270° |
| 2026-05-01 14:44 | 32.21106 | -81.54362 | 3768 ft | 226 kts | 252° |
| 2026-05-01 14:44 | 32.18797 | -81.56643 | 3029 ft | 224 kts | 193° |
| 2026-05-01 14:44 | 32.17266 | -81.56842 | 2684 ft | 222 kts | 175° |
| 2026-05-01 14:45 | 32.15856 | -81.56295 | 2548 ft | 215 kts | 143° |
| 2026-05-01 14:45 | 32.14226 | -81.53404 | 2562 ft | 213 kts | 104° |
| 2026-05-01 14:45 | 32.13972 | -81.51701 | 2560 ft | 213 kts | 96° |
| 2026-05-01 14:46 | 32.13765 | -81.49963 | 2559 ft | 213 kts | 98° |
| 2026-05-01 14:46 | 32.13247 | -81.46502 | 2563 ft | 213 kts | 99° |
| 2026-05-01 14:46 | 32.13063 | -81.44788 | 2562 ft | 212 kts | 92° |
| 2026-05-01 14:47 | 32.13031 | -81.43040 | 2561 ft | 213 kts | 89° |
| 2026-05-01 14:47 | 32.13041 | -81.41327 | 2556 ft | 207 kts | 89° |
| 2026-05-01 14:47 | 32.13030 | -81.39646 | 2556 ft | 201 kts | 90° |
| 2026-05-01 14:48 | 32.12998 | -81.36365 | 2423 ft | 193 kts | 89° |
| 2026-05-01 14:48 | 32.12987 | -81.34827 | 2183 ft | 182 kts | 90° |
| 2026-05-01 14:48 | 32.12964 | -81.32030 | 1740 ft | 158 kts | 90° |
| 2026-05-01 14:49 | 32.12942 | -81.29533 | 1325 ft | 151 kts | 90° |
| 2026-05-01 14:49 | 32.12925 | -81.27045 | 919 ft | 152 kts | 90° |
| 2026-05-01 14:50 | 32.12907 | -81.24957 | 584 ft | 153 kts | 90° |
| 2026-05-01 14:50 | 32.12880 | -81.22032 | 124 ft | 154 kts | 90° |
| 2026-05-01 14:51 | 32.12874 | -81.20782 | 59 ft | 150 kts | 90° |
| 2026-05-01 14:51 | 32.12856 | -81.19378 | 56 ft | 37 kts | 90° |
| 2026-05-01 14:52 | 32.12865 | -81.18900 | 56 ft | 12 kts | 49° |
| 2026-05-01 14:52 | 32.12951 | -81.18908 | 56 ft | 14 kts | 295° |
| 2026-05-01 14:52 | 32.12960 | -81.19138 | 56 ft | 16 kts | 271° |
| 2026-05-01 14:53 | 32.12962 | -81.19296 | 56 ft | 22 kts | 271° |
| 2026-05-01 14:53 | 32.12963 | -81.19496 | 56 ft | 25 kts | 271° |
| 2026-05-01 14:53 | 32.12996 | -81.19704 | 56 ft | 26 kts | 286° |
| 2026-05-01 14:53 | 32.13019 | -81.19920 | 56 ft | 27 kts | 271° |
| 2026-05-01 14:54 | 32.13024 | -81.20140 | 56 ft | 25 kts | 272° |
| 2026-05-01 14:54 | 32.13038 | -81.20306 | 56 ft | 13 kts | 304° |
| 2026-05-01 14:54 | 32.13132 | -81.20329 | 56 ft | 17 kts | 0° |
| 2026-05-01 14:54 | 32.13277 | -81.20332 | 56 ft | 21 kts | 360° |
| 2026-05-01 14:55 | 32.13408 | -81.20333 | 56 ft | 14 kts | 347° |
| 2026-05-01 14:55 | 32.13444 | -81.20425 | 56 ft | 13 kts | 272° |
| 2026-05-01 14:55 | 32.13446 | -81.20551 | 56 ft | 16 kts | 272° |
| 2026-05-01 14:55 | 32.13447 | -81.20667 | 56 ft | 12 kts | 271° |
| 2026-05-01 14:56 | 32.13481 | -81.20734 | 56 ft | 7 kts | 345° |
| 2026-05-01 14:56 | 32.13511 | -81.20737 | 56 ft | 0 kts | 356° |